Burstall, Canada
Current Conditions -  °F | °C
As of 12:36 PM on Thursday 30 Oct 2014 (Local Time) from CYXH Reporting Station
Broken Clouds Broken Clouds  
Wind Chill: 39°   Ceiling: 26000
Heat Index: 39°   Visibility: 15mi
Dew Point: 36°   Wind: 3mph
Humidity: 87%   Direction: NA
Pressure: 30.28"   Gusts: NA
Location:  50.65°N, 109.92°W
Report Text: CYXH 301836Z VRB03KT 15SM SCT007 BKN260 04/02 A3028 RMK SC3CI3 SLP281
Loading
Personal Weather Stations






























Interactive Weather Map
Tropical Storm Tracking
New forecast layout! Learn more

10-Day Weather Forecast

Advertisements
Track Severe Weather on mobile